createdAt,value
2017-12-03T00:02:03.596Z,59.37
2017-12-03T00:05:04.994Z,56.97
2017-12-03T00:08:06.386Z,47.83
2017-12-03T00:11:07.725Z,46.67
2017-12-03T00:14:09.155Z,52.93
2017-12-03T00:17:10.500Z,53.63
2017-12-03T00:20:11.931Z,54.77
2017-12-03T00:23:14.061Z,49.07
2017-12-03T00:26:15.493Z,52.47
2017-12-03T00:29:16.939Z,45.00
2017-12-03T00:32:18.338Z,44.37
2017-12-03T00:35:19.743Z,42.53
2017-12-03T00:38:21.104Z,42.10
2017-12-03T00:41:22.607Z,33.60
2017-12-03T00:44:23.983Z,25.93
2017-12-03T00:47:25.374Z,44.70
2017-12-03T00:50:26.774Z,32.07
2017-12-03T00:53:28.915Z,46.43
2017-12-03T00:56:30.373Z,48.87
2017-12-03T00:59:31.779Z,35.93
2017-12-03T01:02:33.218Z,43.43
2017-12-03T01:05:34.810Z,30.30
2017-12-03T01:08:36.237Z,35.90
2017-12-03T01:11:37.665Z,36.60
2017-12-03T01:14:39.788Z,37.73
2017-12-03T01:17:41.239Z,38.57
2017-12-03T01:20:42.590Z,35.17
2017-12-03T01:23:44.200Z,37.10
2017-12-03T01:26:45.600Z,33.70
2017-12-03T01:29:47.014Z,34.63
2017-12-03T01:32:49.322Z,29.30
2017-12-03T01:35:50.635Z,26.97
2017-12-03T01:38:52.006Z,41.40
2017-12-03T01:41:53.412Z,38.70
2017-12-03T01:44:55.564Z,32.67
2017-12-03T01:47:56.881Z,38.27
2017-12-03T01:50:58.309Z,33.90
2017-12-03T01:53:59.689Z,36.00
2017-12-03T01:57:01.777Z,32.70
2017-12-03T02:00:03.269Z,30.30
2017-12-03T02:03:04.617Z,32.00
2017-12-03T02:06:06.057Z,36.07
2017-12-03T02:09:08.224Z,34.13
2017-12-03T02:12:10.438Z,39.90
2017-12-03T02:15:11.995Z,35.70
2017-12-03T02:18:13.348Z,36.47
2017-12-03T02:21:14.895Z,32.37
2017-12-03T02:24:16.253Z,32.47
2017-12-03T02:27:17.695Z,40.07
2017-12-03T02:30:19.020Z,32.37
2017-12-03T02:33:20.377Z,35.43
2017-12-03T02:36:21.795Z,34.60
2017-12-03T02:39:23.169Z,33.00
2017-12-03T02:42:25.304Z,29.30
2017-12-03T02:45:26.785Z,25.83
2017-12-03T02:48:28.881Z,35.57
2017-12-03T02:51:30.296Z,30.03
2017-12-03T02:54:31.788Z,32.97
2017-12-03T02:57:33.144Z,30.60
2017-12-03T03:00:34.625Z,35.33
2017-12-03T03:03:42.941Z,24.93
2017-12-03T03:06:44.299Z,33.57
2017-12-03T03:09:45.716Z,32.70
2017-12-03T03:12:47.091Z,36.23
2017-12-03T03:15:48.544Z,31.07
2017-12-03T03:18:50.049Z,26.30
2017-12-03T03:21:51.459Z,31.77
2017-12-03T03:24:52.854Z,30.83
2017-12-03T03:27:54.263Z,29.37
2017-12-03T03:30:55.704Z,31.60
2017-12-03T03:33:57.121Z,22.60
2017-12-03T03:36:58.514Z,26.87
2017-12-03T03:39:59.964Z,31.70
2017-12-03T03:43:01.448Z,30.60
2017-12-03T03:46:03.581Z,32.73
2017-12-03T03:49:05.156Z,34.67
2017-12-03T03:52:06.551Z,36.83
2017-12-03T03:55:07.937Z,32.73
2017-12-03T03:58:09.472Z,39.83
2017-12-03T04:01:10.872Z,32.83
2017-12-03T04:04:12.272Z,30.30
2017-12-03T04:07:13.767Z,32.33
2017-12-03T04:10:15.179Z,36.30
2017-12-03T04:13:16.530Z,32.73
2017-12-03T04:16:17.967Z,33.80
2017-12-03T04:19:19.391Z,37.07
2017-12-03T04:22:21.579Z,34.40
2017-12-03T04:25:22.960Z,35.77
2017-12-03T04:28:24.324Z,31.57
2017-12-03T04:31:25.746Z,34.77
2017-12-03T04:34:27.114Z,34.50
2017-12-03T04:37:28.507Z,37.17
2017-12-03T04:40:30.650Z,29.57
2017-12-03T04:43:32.180Z,33.27
2017-12-03T04:46:33.592Z,30.07
2017-12-03T04:49:35.054Z,29.47
2017-12-03T04:52:36.514Z,35.40
2017-12-03T04:55:37.911Z,33.87
2017-12-03T04:58:39.371Z,37.33
2017-12-03T05:01:40.759Z,29.90
2017-12-03T05:04:42.908Z,31.73
2017-12-03T05:07:45.056Z,24.60
2017-12-03T05:10:46.561Z,25.93
2017-12-03T05:13:47.968Z,24.80
2017-12-03T05:16:49.357Z,26.27
2017-12-03T05:19:51.496Z,25.23
2017-12-03T05:22:52.886Z,33.73
2017-12-03T05:25:54.293Z,26.77
2017-12-03T05:28:56.006Z,23.73
2017-12-03T05:31:57.379Z,23.17
2017-12-03T05:34:58.812Z,28.80
2017-12-03T05:38:00.164Z,23.80
2017-12-03T05:41:01.592Z,29.73
2017-12-03T05:44:02.932Z,29.83
2017-12-03T05:47:05.103Z,20.70
2017-12-03T05:50:07.378Z,26.70
2017-12-03T05:53:09.603Z,18.70
2017-12-03T05:56:11.156Z,25.73
2017-12-03T05:59:12.508Z,23.70
2017-12-03T06:02:14.052Z,20.20
2017-12-03T06:05:15.616Z,18.90
2017-12-03T06:08:17.089Z,25.27
2017-12-03T06:11:18.531Z,23.20
2017-12-03T06:14:20.088Z,28.17
2017-12-03T06:17:21.543Z,26.10
2017-12-03T06:20:23.691Z,30.73
2017-12-03T06:23:25.096Z,23.60
2017-12-03T06:26:27.240Z,18.23
2017-12-03T06:29:28.651Z,21.80
2017-12-03T06:32:30.084Z,28.77
2017-12-03T06:35:31.488Z,24.87
2017-12-03T06:38:32.919Z,23.53
2017-12-03T06:41:34.447Z,26.80
2017-12-03T06:44:35.871Z,20.43
2017-12-03T06:47:38.015Z,35.80
2017-12-03T06:50:39.419Z,25.07
2017-12-03T06:53:40.810Z,25.00
2017-12-03T06:56:42.391Z,18.43
2017-12-03T06:59:43.934Z,28.53
2017-12-03T07:02:45.297Z,26.13
2017-12-03T07:05:47.433Z,24.17
2017-12-03T07:08:48.789Z,25.33
2017-12-03T07:11:50.173Z,26.03
2017-12-03T07:14:52.317Z,23.80
2017-12-03T07:17:53.698Z,27.67
2017-12-03T07:20:55.149Z,17.93
2017-12-03T07:23:57.299Z,24.97
2017-12-03T07:26:58.681Z,25.17
2017-12-03T07:30:00.821Z,18.87
2017-12-03T07:33:02.245Z,27.17
2017-12-03T07:36:03.659Z,19.10
2017-12-03T07:39:05.036Z,23.10
2017-12-03T07:42:06.512Z,22.77
2017-12-03T07:45:07.892Z,30.20
2017-12-03T07:48:10.105Z,28.53
2017-12-03T07:51:11.489Z,22.17
2017-12-03T07:54:12.919Z,23.60
2017-12-03T07:57:14.383Z,23.90
2017-12-03T08:00:15.793Z,23.23
2017-12-03T08:03:17.234Z,20.10
2017-12-03T08:06:19.409Z,21.50
2017-12-03T08:09:20.775Z,26.70
2017-12-03T08:12:22.180Z,24.63
2017-12-03T08:15:23.796Z,29.47
2017-12-03T08:18:25.281Z,21.87
2017-12-03T08:21:26.703Z,21.37
2017-12-03T08:24:28.183Z,23.27
2017-12-03T08:27:29.556Z,142.47
2017-12-03T08:30:31.690Z,41.17
2017-12-03T08:33:33.061Z,35.80
2017-12-03T08:36:34.511Z,27.90
2017-12-03T08:39:35.900Z,22.77
2017-12-03T08:42:37.298Z,23.47
2017-12-03T08:45:38.969Z,29.20
2017-12-03T08:48:40.512Z,26.53
2017-12-03T08:51:41.893Z,27.80
2017-12-03T08:54:44.027Z,27.33
2017-12-03T08:57:45.492Z,21.83
2017-12-03T09:00:47.079Z,18.50
2017-12-03T09:03:49.207Z,23.00
2017-12-03T09:06:50.640Z,25.97
2017-12-03T09:09:51.979Z,24.87
2017-12-03T09:12:53.420Z,18.13
2017-12-03T09:15:54.796Z,21.63
2017-12-03T09:18:56.383Z,36.80
2017-12-03T09:21:58.046Z,28.27
2017-12-03T09:24:59.489Z,26.13
2017-12-03T09:28:00.856Z,21.10
2017-12-03T09:31:03.009Z,25.00
2017-12-03T09:34:04.419Z,29.07
2017-12-03T09:37:05.892Z,21.67
2017-12-03T09:40:07.343Z,21.90
2017-12-03T09:43:08.678Z,25.10
2017-12-03T09:46:10.072Z,24.10
2017-12-03T09:49:11.416Z,25.77
2017-12-03T09:52:12.800Z,27.90
2017-12-03T09:55:14.996Z,17.57
2017-12-03T09:58:16.508Z,21.60
2017-12-03T10:01:17.882Z,17.83
2017-12-03T10:04:20.040Z,17.50
2017-12-03T10:07:22.148Z,20.53
2017-12-03T10:10:23.582Z,18.07
2017-12-03T10:13:25.003Z,21.53
2017-12-03T10:16:26.464Z,17.37
2017-12-03T10:19:27.927Z,18.90
2017-12-03T10:22:30.025Z,18.13
2017-12-03T10:25:31.404Z,18.53
2017-12-03T10:28:32.815Z,16.13
2017-12-03T10:31:34.176Z,17.90
2017-12-03T10:34:35.613Z,19.40
2017-12-03T10:37:56.300Z,14.70
2017-12-03T10:40:58.476Z,22.63
2017-12-03T10:44:00.620Z,23.93
2017-12-03T10:47:01.978Z,21.53
2017-12-03T10:50:03.390Z,16.50
2017-12-03T10:53:04.737Z,22.33
2017-12-03T10:56:06.232Z,18.70
2017-12-03T10:59:07.684Z,14.40
2017-12-03T11:02:09.063Z,17.70
2017-12-03T11:05:11.180Z,15.17
2017-12-03T11:08:12.632Z,15.30
2017-12-03T11:11:13.973Z,15.00
2017-12-03T11:14:15.286Z,15.67
2017-12-03T11:17:16.725Z,12.57
2017-12-03T11:20:18.867Z,15.90
2017-12-03T11:23:20.251Z,12.93
2017-12-03T11:26:22.527Z,12.57
2017-12-03T11:29:24.138Z,17.20
2017-12-03T11:32:25.735Z,11.70
2017-12-03T11:35:28.132Z,15.23
2017-12-03T11:38:29.569Z,12.60
2017-12-03T11:41:31.009Z,12.80
2017-12-03T11:44:33.123Z,13.60
2017-12-03T11:47:35.461Z,13.53
2017-12-03T11:50:36.819Z,11.73
2017-12-03T11:53:38.174Z,15.30
2017-12-03T11:56:39.921Z,18.73
2017-12-03T11:59:41.341Z,16.43
2017-12-03T12:02:42.759Z,17.37
2017-12-03T12:05:44.120Z,13.63
2017-12-03T12:08:45.557Z,16.80
2017-12-03T12:11:46.937Z,16.13
2017-12-03T12:14:48.323Z,37.73
2017-12-03T12:17:50.806Z,36.20
2017-12-03T12:20:52.924Z,17.47
2017-12-03T12:23:54.324Z,18.40
2017-12-03T12:26:56.460Z,22.30
2017-12-03T12:29:57.837Z,16.63
2017-12-03T12:32:59.398Z,12.13
2017-12-03T12:36:00.923Z,12.10
2017-12-03T12:39:03.908Z,14.90
2017-12-03T12:42:06.090Z,16.97
2017-12-03T12:45:07.565Z,15.63
2017-12-03T12:48:10.022Z,18.70
2017-12-03T12:51:12.546Z,19.87
2017-12-03T12:54:14.391Z,15.57
2017-12-03T12:57:16.775Z,16.20
2017-12-03T13:00:18.267Z,14.33
2017-12-03T13:03:19.893Z,15.87
2017-12-03T13:06:21.416Z,16.30
2017-12-03T13:09:22.965Z,10.30
2017-12-03T13:12:25.147Z,17.93
2017-12-03T13:15:26.617Z,22.47
2017-12-03T13:18:28.772Z,16.70
2017-12-03T13:21:30.991Z,14.33
2017-12-03T13:24:32.388Z,13.80
2017-12-03T13:27:33.858Z,12.13
2017-12-03T13:30:35.944Z,13.83
2017-12-03T13:33:37.313Z,13.27
2017-12-03T13:36:38.756Z,14.37
2017-12-03T13:39:40.148Z,14.03
2017-12-03T13:42:41.541Z,14.43
2017-12-03T13:45:42.900Z,16.20
2017-12-03T13:48:44.321Z,17.60
2017-12-03T13:51:45.708Z,18.43
2017-12-03T13:54:47.145Z,17.60
2017-12-03T13:57:49.232Z,15.90
2017-12-03T14:00:50.616Z,15.57
2017-12-03T14:03:52.044Z,10.07
2017-12-03T14:06:53.512Z,16.13
2017-12-03T14:09:54.970Z,14.30
2017-12-03T14:12:56.334Z,12.83
2017-12-03T14:15:57.737Z,17.23
2017-12-03T14:18:59.121Z,14.97
2017-12-03T14:22:00.498Z,24.30
2017-12-03T14:25:01.880Z,13.73
2017-12-03T14:28:04.008Z,18.93
2017-12-03T14:31:05.409Z,13.27
2017-12-03T14:34:07.524Z,13.63
2017-12-03T14:37:08.897Z,13.83
2017-12-03T14:40:10.273Z,9.97
2017-12-03T14:43:12.457Z,11.60
2017-12-03T14:46:13.844Z,9.67
2017-12-03T14:49:15.248Z,11.10
2017-12-03T14:52:17.321Z,12.40
2017-12-03T14:55:18.708Z,11.83
2017-12-03T14:58:20.080Z,16.97
2017-12-03T15:01:21.423Z,15.63
2017-12-03T15:04:22.884Z,13.87
2017-12-03T15:07:24.276Z,22.40
2017-12-03T15:10:25.756Z,23.87
2017-12-03T15:13:27.160Z,14.27
2017-12-03T15:16:29.272Z,13.00
2017-12-03T15:19:30.657Z,12.73
2017-12-03T15:22:32.072Z,22.87
2017-12-03T15:25:33.464Z,14.00
2017-12-03T15:28:35.077Z,15.20
2017-12-03T15:31:37.295Z,13.67
2017-12-03T15:34:38.663Z,25.10
2017-12-03T15:37:40.816Z,7.30
2017-12-03T15:40:42.192Z,10.70
2017-12-03T15:43:44.376Z,10.80
2017-12-03T15:46:45.759Z,18.27
2017-12-03T15:49:47.168Z,12.23
2017-12-03T15:52:49.321Z,16.90
2017-12-03T15:55:51.450Z,14.27
2017-12-03T15:58:52.999Z,9.47
2017-12-03T16:01:54.392Z,15.37
2017-12-03T16:04:55.805Z,15.10
2017-12-03T16:07:57.253Z,14.47
2017-12-03T16:10:59.336Z,17.00
2017-12-03T16:14:00.728Z,19.83
2017-12-03T16:17:02.860Z,16.63
2017-12-03T16:20:04.562Z,21.73
2017-12-03T16:23:05.963Z,17.43
2017-12-03T16:26:08.111Z,22.17
2017-12-03T16:29:09.496Z,18.90
2017-12-03T16:32:10.929Z,22.37
2017-12-03T16:35:12.309Z,22.27
2017-12-03T16:38:13.696Z,23.50
2017-12-03T16:41:15.056Z,29.53
2017-12-03T16:44:16.453Z,56.13
2017-12-03T16:47:17.877Z,44.30
2017-12-03T16:50:19.383Z,22.17
2017-12-03T16:53:21.631Z,28.07
2017-12-03T16:56:23.056Z,26.30
2017-12-03T16:59:24.400Z,168.47
2017-12-03T17:02:25.799Z,28.97
2017-12-03T17:05:27.323Z,25.57
2017-12-03T17:08:28.783Z,24.10
2017-12-03T17:11:30.352Z,27.57
2017-12-03T17:14:31.888Z,32.67
2017-12-03T17:17:33.357Z,24.30
2017-12-03T17:20:35.568Z,31.40
2017-12-03T17:23:37.098Z,25.23
2017-12-03T17:26:38.540Z,23.27
2017-12-03T17:29:39.914Z,23.30
2017-12-03T17:32:42.163Z,23.43
2017-12-03T17:35:43.671Z,22.90
2017-12-03T17:38:45.304Z,25.20
2017-12-03T17:41:46.775Z,26.43
2017-12-03T17:44:48.480Z,25.43
2017-12-03T17:47:51.008Z,26.53
2017-12-03T17:50:52.532Z,29.60
2017-12-03T17:53:54.840Z,25.93
2017-12-03T17:56:56.214Z,44.77
2017-12-03T17:59:57.733Z,29.47
2017-12-03T18:02:59.321Z,29.10
2017-12-03T18:06:01.680Z,33.53
2017-12-03T18:09:03.375Z,36.27
2017-12-03T18:12:05.276Z,44.77
2017-12-03T18:15:06.704Z,38.40
2017-12-03T18:18:08.990Z,60.03
2017-12-03T18:21:10.526Z,37.27
2017-12-03T18:24:12.150Z,36.90
2017-12-03T18:27:13.617Z,34.90
2017-12-03T18:30:15.390Z,37.77
2017-12-03T18:33:18.798Z,66.33
2017-12-03T18:36:21.087Z,46.63
2017-12-03T18:39:23.417Z,48.80
2017-12-03T18:42:25.717Z,49.20
2017-12-03T18:45:28.321Z,47.90
2017-12-03T18:48:29.802Z,55.90
2017-12-03T18:51:31.902Z,24.13
2017-12-03T18:54:33.451Z,46.17
2017-12-03T18:57:36.208Z,43.60
2017-12-03T19:00:38.094Z,48.77
2017-12-03T19:03:39.782Z,42.70
2017-12-03T19:06:42.013Z,43.43
2017-12-03T19:09:43.494Z,41.30
2017-12-03T19:12:45.221Z,51.43
2017-12-03T19:15:48.240Z,67.73
2017-12-03T19:18:52.948Z,40.90
2017-12-03T19:21:54.961Z,39.67
2017-12-03T19:24:57.321Z,40.43
2017-12-03T19:27:59.933Z,44.53
2017-12-03T19:31:02.619Z,37.97
2017-12-03T19:34:05.320Z,51.33
2017-12-03T19:37:07.446Z,46.30
2017-12-03T19:40:09.021Z,42.83
2017-12-03T19:43:10.478Z,72.07
2017-12-03T19:46:11.957Z,46.27
2017-12-03T19:49:14.773Z,71.07
2017-12-03T19:52:17.816Z,52.00
2017-12-03T19:55:19.310Z,69.40
2017-12-03T19:58:23.910Z,54.80
2017-12-03T20:01:25.275Z,59.30
2017-12-03T20:04:27.414Z,50.40
2017-12-03T20:07:29.004Z,65.20
2017-12-03T20:10:31.388Z,52.80
2017-12-03T20:13:34.933Z,55.60
2017-12-03T20:16:36.456Z,75.50
2017-12-03T20:19:37.939Z,50.97
2017-12-03T20:22:40.716Z,60.83
2017-12-03T20:25:42.820Z,66.10
2017-12-03T20:28:44.909Z,47.40
2017-12-03T20:31:46.842Z,56.63
2017-12-03T20:34:48.399Z,67.00
2017-12-03T20:37:50.020Z,73.63
2017-12-03T20:40:52.077Z,71.70
2017-12-03T20:43:53.760Z,79.07
2017-12-03T20:46:58.158Z,65.00
2017-12-03T20:50:00.237Z,77.70
2017-12-03T20:53:01.769Z,56.73
2017-12-03T20:56:03.259Z,63.17
2017-12-03T20:59:05.522Z,70.60
2017-12-03T21:02:06.992Z,75.23
2017-12-03T21:05:09.062Z,94.00
2017-12-03T21:08:11.663Z,70.93
2017-12-03T21:11:13.103Z,83.43
2017-12-03T21:14:14.580Z,71.07
2017-12-03T21:17:16.043Z,75.30
2017-12-03T21:20:17.568Z,73.80
2017-12-03T21:23:19.030Z,65.27
2017-12-03T21:26:20.485Z,84.23
2017-12-03T21:29:21.927Z,72.77
2017-12-03T21:32:23.431Z,56.83
2017-12-03T21:35:24.984Z,52.67
2017-12-03T21:38:26.461Z,56.47
2017-12-03T21:41:27.976Z,38.00
2017-12-03T21:44:29.495Z,52.30
2017-12-03T21:47:31.776Z,71.87
2017-12-03T21:50:33.194Z,61.70
2017-12-03T21:53:34.777Z,55.50
2017-12-03T21:56:36.156Z,59.67
2017-12-03T21:59:37.513Z,52.13
2017-12-03T22:02:38.899Z,62.23
2017-12-03T22:05:40.265Z,64.70
2017-12-03T22:08:42.417Z,49.03
2017-12-03T22:11:43.752Z,56.40
2017-12-03T22:14:45.165Z,59.63
2017-12-03T22:17:46.524Z,52.90
2017-12-03T22:20:47.907Z,47.37
2017-12-03T22:23:49.264Z,54.83
2017-12-03T22:26:50.640Z,72.57
2017-12-03T22:29:52.766Z,53.90
2017-12-03T22:32:54.167Z,53.07
2017-12-03T22:35:56.296Z,63.33
2017-12-03T22:38:57.831Z,64.03
2017-12-03T22:41:59.236Z,54.10
2017-12-03T22:45:01.355Z,54.07
2017-12-03T22:48:02.759Z,51.50
2017-12-03T22:51:04.105Z,52.50
2017-12-03T22:54:06.235Z,47.63
2017-12-03T22:57:07.708Z,47.80
2017-12-03T23:00:09.259Z,56.57
2017-12-03T23:03:10.631Z,56.30
2017-12-03T23:06:12.714Z,45.30
2017-12-03T23:09:14.244Z,65.50
2017-12-03T23:12:15.580Z,49.93
2017-12-03T23:15:16.956Z,58.47
2017-12-03T23:18:19.044Z,51.77
2017-12-03T23:21:20.492Z,67.70
2017-12-03T23:24:21.925Z,57.93
2017-12-03T23:27:24.153Z,65.37
2017-12-03T23:30:25.663Z,72.23
2017-12-03T23:33:27.862Z,61.17
2017-12-03T23:36:29.320Z,59.10
2017-12-03T23:39:30.730Z,55.93
2017-12-03T23:42:33.067Z,64.63
2017-12-03T23:45:34.507Z,55.03
2017-12-03T23:48:35.924Z,43.37
2017-12-03T23:51:37.347Z,63.33
2017-12-03T23:54:38.811Z,54.77
2017-12-03T23:57:41.025Z,60.47
